Time;durP1;ratioP1;P1;durP2;ratioP2;P2;SDS_P1;SDS_P2;PMS_P1;PMS_P2;Temp;Humidity;BMP_temperature;BMP_pressure;BME280_temperature;BME280_humidity;BME280_pressure;Samples;Min_cycle;Max_cycle;Signal;HPM_P1;HPM_P2
2022/04/02 00:01:16;;;;;;;10.48;8.55;;;4.10;72.90;;;;;;5090391;28;20259;-63
2022/04/02 00:03:44;;;;;;;9.88;7.38;;;4.10;73.40;;;;;;5090702;28;20185;-63
2022/04/02 00:06:11;;;;;;;8.70;7.35;;;4.20;73.70;;;;;;5089551;28;20594;-64
2022/04/02 00:08:38;;;;;;;9.07;7.47;;;4.10;73.50;;;;;;5086351;28;20531;-63
2022/04/02 00:11:08;;;;;;;10.93;8.05;;;4.20;73.30;;;;;;5090388;28;20203;-63
2022/04/02 00:13:36;;;;;;;10.48;8.48;;;4.10;73.50;;;;;;5090702;28;20250;-63
2022/04/02 00:16:04;;;;;;;12.77;8.75;;;4.10;73.90;;;;;;5089702;28;20197;-63
2022/04/02 00:18:32;;;;;;;7.65;6.60;;;4.10;74.10;;;;;;5089911;28;20309;-63
2022/04/02 00:20:59;;;;;;;12.25;8.93;;;4.10;74.10;;;;;;5090036;28;20655;-63
2022/04/02 00:23:43;;;;;;;8.70;6.97;;;4.10;74.20;;;;;;5090050;28;20188;-63
2022/04/02 00:26:14;;;;;;;11.40;8.88;;;4.10;74.70;;;;;;5090916;28;20197;-63
2022/04/02 00:28:43;;;;;;;7.47;6.50;;;4.10;74.60;;;;;;5110610;28;20188;-63
2022/04/02 00:31:12;;;;;;;9.60;8.07;;;4.10;74.60;;;;;;5111955;28;20189;-63
2022/04/02 00:33:41;;;;;;;9.43;7.88;;;4.10;74.50;;;;;;5093151;28;20246;-63
2022/04/02 00:36:09;;;;;;;9.82;7.95;;;4.10;74.70;;;;;;5091823;28;20185;-63
2022/04/02 00:38:37;;;;;;;12.43;9.52;;;4.00;74.70;;;;;;5091966;28;20217;-63
2022/04/02 00:41:04;;;;;;;9.88;8.30;;;4.00;75.20;;;;;;5091361;28;20192;-63
2022/04/02 00:43:35;;;;;;;9.40;7.03;;;4.00;75.10;;;;;;5107630;28;20184;-63
2022/04/02 00:46:05;;;;;;;8.18;6.88;;;4.00;74.80;;;;;;5111920;28;20273;-64
2022/04/02 00:48:33;;;;;;;10.60;8.30;;;4.00;74.40;;;;;;5095413;28;20185;-63
2022/04/02 00:51:03;;;;;;;9.10;7.75;;;4.00;73.90;;;;;;5091308;28;20265;-63
2022/04/02 00:53:32;;;;;;;9.30;8.32;;;4.00;73.90;;;;;;5106006;28;20192;-63
2022/04/02 00:56:01;;;;;;;10.38;8.25;;;4.00;73.70;;;;;;5111813;28;20787;-63
2022/04/02 00:58:29;;;;;;;8.60;7.68;;;4.00;73.70;;;;;;5096547;28;20244;-63
2022/04/02 01:00:57;;;;;;;8.07;7.22;;;4.00;73.40;;;;;;5097308;28;20208;-63
2022/04/02 01:03:27;;;;;;;10.27;7.95;;;3.90;73.20;;;;;;5115670;28;20224;-63
2022/04/02 01:05:54;;;;;;;9.45;7.78;;;3.90;73.30;;;;;;5112301;28;20195;-63
2022/04/02 01:08:22;;;;;;;11.02;8.35;;;3.90;73.20;;;;;;5108901;28;20581;-63
2022/04/02 01:10:49;;;;;;;9.82;7.95;;;3.90;73.30;;;;;;5113634;28;20304;-63
2022/04/02 01:13:17;;;;;;;9.27;7.15;;;3.90;73.70;;;;;;5094772;28;20639;-63
2022/04/02 01:15:44;;;;;;;10.85;8.93;;;4.00;73.90;;;;;;5094861;28;20246;-64
2022/04/02 01:18:13;;;;;;;12.15;9.45;;;4.00;73.30;;;;;;5102749;28;20228;-63
2022/04/02 01:20:41;;;;;;;8.25;6.95;;;3.90;73.20;;;;;;5094913;28;20196;-63
2022/04/02 01:23:09;;;;;;;9.52;7.85;;;3.90;73.60;;;;;;5114119;28;20189;-63
2022/04/02 01:25:39;;;;;;;9.80;7.95;;;3.90;73.40;;;;;;5115160;28;20241;-63
2022/04/02 01:28:07;;;;;;;9.75;8.40;;;3.90;73.10;;;;;;5106749;28;20245;-63
2022/04/02 01:30:34;;;;;;;9.75;7.90;;;3.90;73.00;;;;;;5114892;28;20242;-63
2022/04/02 01:33:01;;;;;;;10.18;8.10;;;3.90;73.50;;;;;;5097079;28;20574;-63
2022/04/02 01:35:29;;;;;;;11.18;9.23;;;3.90;73.30;;;;;;5103787;28;20188;-63
2022/04/02 01:37:56;;;;;;;9.40;7.60;;;3.90;73.50;;;;;;5105097;28;20237;-65
2022/04/02 01:40:24;;;;;;;11.38;8.60;;;3.80;74.00;;;;;;5094548;28;20220;-63
2022/04/02 01:42:52;;;;;;;9.60;8.05;;;3.80;74.10;;;;;;5101836;28;20184;-63
2022/04/02 01:45:19;;;;;;;10.07;7.85;;;3.80;74.30;;;;;;5115000;28;20188;-63
2022/04/02 01:47:50;;;;;;;11.65;10.10;;;3.80;74.30;;;;;;5112191;28;20188;-64
2022/04/02 01:50:17;;;;;;;11.45;8.48;;;3.80;73.90;;;;;;5114763;28;20720;-64
2022/04/02 01:52:45;;;;;;;12.70;9.18;;;3.80;74.50;;;;;;5104083;28;20588;-63
2022/04/02 01:55:12;;;;;;;11.82;8.70;;;3.80;74.80;;;;;;5094129;28;20242;-63
2022/04/02 01:57:41;;;;;;;10.82;9.20;;;3.80;75.00;;;;;;5103768;28;20662;-63
2022/04/02 02:00:09;;;;;;;9.93;8.05;;;3.80;75.50;;;;;;5114638;28;20257;-63
2022/04/02 02:02:37;;;;;;;13.70;9.93;;;3.80;75.40;;;;;;5105263;28;20326;-63
2022/04/02 02:05:04;;;;;;;12.02;8.65;;;3.80;75.00;;;;;;5094055;28;20193;-63
2022/04/02 02:07:31;;;;;;;11.07;9.38;;;3.80;75.30;;;;;;5102144;28;20241;-64
2022/04/02 02:09:59;;;;;;;10.52;8.93;;;3.80;75.30;;;;;;5114317;28;20267;-63
2022/04/02 02:12:26;;;;;;;10.88;8.15;;;3.80;75.60;;;;;;5105359;28;20674;-63
2022/04/02 02:14:55;;;;;;;12.20;9.32;;;3.80;75.50;;;;;;5094173;28;20188;-63
2022/04/02 02:17:22;;;;;;;11.75;9.93;;;3.80;75.40;;;;;;5100471;28;20261;-63
2022/04/02 02:19:49;;;;;;;12.73;10.55;;;3.70;75.30;;;;;;5113975;27;20224;-63
2022/04/02 02:22:16;;;;;;;11.60;8.80;;;3.70;75.60;;;;;;5108345;28;20185;-64
2022/04/02 02:24:43;;;;;;;11.60;9.13;;;3.70;75.70;;;;;;5093935;28;20596;-63
2022/04/02 02:27:10;;;;;;;10.93;8.55;;;3.70;75.90;;;;;;5097059;28;20181;-63
2022/04/02 02:29:38;;;;;;;9.02;8.10;;;3.70;76.00;;;;;;5113802;28;20299;-64
2022/04/02 02:32:08;;;;;;;10.95;8.32;;;3.70;75.90;;;;;;5110090;28;20276;-63
2022/04/02 02:37:20;;;;;;;10.68;8.65;;;3.70;76.00;;;;;;5098209;28;20184;-63
2022/04/02 02:39:47;;;;;;;10.60;8.05;;;3.70;75.90;;;;;;5113657;28;20281;-63
2022/04/02 02:42:14;;;;;;;11.38;9.27;;;3.70;76.00;;;;;;5108756;28;20230;-63
2022/04/02 02:44:41;;;;;;;10.63;8.02;;;3.70;75.60;;;;;;5093275;28;20185;-64
2022/04/02 02:47:11;;;;;;;11.15;9.13;;;3.70;75.80;;;;;;5096150;28;20249;-63
2022/04/02 02:49:39;;;;;;;9.85;8.55;;;3.70;75.90;;;;;;5113751;28;20626;-63
2022/04/02 02:52:08;;;;;;;10.98;8.65;;;3.70;75.50;;;;;;5110415;28;20559;-63
2022/04/02 02:54:35;;;;;;;11.75;9.30;;;3.70;75.90;;;;;;5093134;28;20185;-63
2022/04/02 02:57:02;;;;;;;12.68;9.45;;;3.70;76.10;;;;;;5094473;28;20239;-63
2022/04/02 02:59:29;;;;;;;11.02;8.48;;;3.70;76.10;;;;;;5113241;28;20222;-63
2022/04/02 03:01:57;;;;;;;11.75;9.30;;;3.60;76.50;;;;;;5111980;28;20249;-63
2022/04/02 03:04:25;;;;;;;10.55;8.85;;;3.60;76.60;;;;;;5092677;28;20189;-64
2022/04/02 03:06:52;;;;;;;11.70;9.07;;;3.60;76.60;;;;;;5092412;28;20234;-64
2022/04/02 03:09:20;;;;;;;10.07;8.65;;;3.60;76.50;;;;;;5113257;28;20227;-63
2022/04/02 03:11:47;;;;;;;11.38;9.40;;;3.60;76.80;;;;;;5113203;28;20197;-70
2022/04/02 03:14:14;;;;;;;11.27;8.73;;;3.60;77.70;;;;;;5112730;28;20192;-63
2022/04/02 03:16:41;;;;;;;9.75;8.55;;;3.60;77.30;;;;;;5112031;28;20682;-64
2022/04/02 03:19:09;;;;;;;10.23;9.05;;;3.60;77.00;;;;;;5112510;28;20216;-63
2022/04/02 03:21:37;;;;;;;11.57;9.25;;;3.60;77.20;;;;;;5112981;28;20221;-63
2022/04/02 03:24:05;;;;;;;9.50;7.60;;;3.60;77.50;;;;;;5104405;28;20215;-63
2022/04/02 03:26:34;;;;;;;10.95;8.45;;;3.60;77.40;;;;;;5092538;28;20189;-63
2022/04/02 03:29:01;;;;;;;11.20;9.65;;;3.60;77.30;;;;;;5092490;28;20272;-64
2022/04/02 03:31:28;;;;;;;11.88;9.13;;;3.60;77.30;;;;;;5110137;28;20188;-64
2022/04/02 03:33:55;;;;;;;11.27;8.35;;;3.60;77.50;;;;;;5094244;28;20770;-63
2022/04/02 03:36:22;;;;;;;12.73;9.63;;;3.60;77.80;;;;;;5108329;28;20185;-63
2022/04/02 03:38:51;;;;;;;11.15;8.52;;;3.60;76.90;;;;;;5112809;28;20196;-64
2022/04/02 03:41:19;;;;;;;11.35;8.88;;;3.60;77.00;;;;;;5096957;28;20268;-63
2022/04/02 03:43:46;;;;;;;10.13;8.30;;;3.60;76.90;;;;;;5108943;28;20189;-63
2022/04/02 03:48:57;;;;;;;10.40;8.43;;;3.60;76.80;;;;;;5102434;28;20188;-63
2022/04/02 03:51:25;;;;;;;10.93;8.55;;;3.60;76.90;;;;;;5092207;28;20189;-63
2022/04/02 03:53:53;;;;;;;9.15;7.93;;;3.60;77.00;;;;;;5106109;28;20185;-63
2022/04/02 03:56:20;;;;;;;11.02;9.10;;;3.50;76.70;;;;;;5112476;28;20211;-64
2022/04/02 03:58:48;;;;;;;12.00;9.48;;;3.50;77.30;;;;;;5100424;28;20615;-63
2022/04/02 04:01:15;;;;;;;12.38;9.32;;;3.60;77.50;;;;;;5112544;28;20248;-64
2022/04/02 04:03:42;;;;;;;12.25;9.85;;;3.60;77.60;;;;;;5101385;28;20268;-63
2022/04/02 04:06:10;;;;;;;12.10;9.88;;;3.60;77.80;;;;;;5092345;28;20193;-63
2022/04/02 04:08:37;;;;;;;13.68;10.82;;;3.60;76.60;;;;;;5101593;28;20237;-64
2022/04/02 04:11:06;;;;;;;10.30;9.05;;;3.60;77.30;;;;;;5112894;28;20249;-64
2022/04/02 04:13:33;;;;;;;12.70;8.77;;;3.60;77.70;;;;;;5103782;28;20624;-63
2022/04/02 04:16:01;;;;;;;12.27;10.02;;;3.60;77.80;;;;;;5092156;28;20280;-64
2022/04/02 04:18:28;;;;;;;14.20;10.63;;;3.60;77.80;;;;;;5098853;28;20180;-63
2022/04/02 04:20:56;;;;;;;13.90;10.32;;;3.50;77.20;;;;;;5093431;28;20584;-63
2022/04/02 04:23:23;;;;;;;12.70;9.73;;;3.50;77.10;;;;;;5097897;28;20181;-64
2022/04/02 04:25:50;;;;;;;15.40;12.52;;;3.50;77.00;;;;;;5112178;28;20188;-63
2022/04/02 04:28:19;;;;;;;14.55;10.95;;;3.40;77.50;;;;;;5108126;28;20177;-64
2022/04/02 04:30:46;;;;;;;14.77;10.57;;;3.40;78.10;;;;;;5109259;28;20187;-63
2022/04/02 04:33:14;;;;;;;16.02;11.07;;;3.40;78.30;;;;;;5109261;28;20193;-63
2022/04/02 04:35:42;;;;;;;10.27;8.90;;;3.50;79.40;;;;;;5094540;28;20668;-64
2022/04/02 04:38:09;;;;;;;11.60;10.40;;;3.50;79.00;;;;;;5096983;28;20207;-63
2022/04/02 04:40:36;;;;;;;9.68;8.68;;;3.50;78.90;;;;;;5096017;28;20216;-63
2022/04/02 04:43:03;;;;;;;12.60;10.10;;;3.50;78.80;;;;;;5095678;28;20189;-66
2022/04/02 04:45:32;;;;;;;12.02;9.20;;;3.50;78.60;;;;;;5079615;28;20232;-63
2022/04/02 04:47:59;;;;;;;12.57;9.82;;;3.50;78.30;;;;;;5096063;28;20216;-63
2022/04/02 04:50:27;;;;;;;10.50;8.35;;;3.60;78.60;;;;;;5114928;28;20189;-64
2022/04/02 04:52:54;;;;;;;12.05;9.23;;;3.60;78.70;;;;;;5115982;28;20233;-64
2022/04/02 04:55:21;;;;;;;11.90;10.10;;;3.60;78.50;;;;;;5097684;28;20185;-63
2022/04/02 04:57:49;;;;;;;13.10;9.40;;;3.60;79.00;;;;;;5095653;28;20218;-63
2022/04/02 05:00:17;;;;;;;13.10;9.48;;;3.60;79.00;;;;;;5113072;28;20280;-63
2022/04/02 05:02:46;;;;;;;10.68;8.90;;;3.60;78.90;;;;;;5116003;28;20195;-64
2022/04/02 05:05:13;;;;;;;11.80;9.07;;;3.60;78.90;;;;;;5098942;28;20192;-65
2022/04/02 05:07:41;;;;;;;11.15;8.98;;;3.60;78.80;;;;;;5095770;28;20201;-63
2022/04/02 05:10:10;;;;;;;10.50;8.60;;;3.60;79.10;;;;;;5111180;28;20199;-63
2022/04/02 05:12:38;;;;;;;10.40;8.43;;;3.60;79.80;;;;;;5115983;28;20242;-64
2022/04/02 05:15:08;;;;;;;8.27;7.00;;;3.60;79.20;;;;;;5100023;28;20224;-63
2022/04/02 05:17:35;;;;;;;8.75;7.32;;;3.60;79.50;;;;;;5095041;28;20221;-63
2022/04/02 05:20:06;;;;;;;8.27;7.10;;;3.70;79.70;;;;;;5110129;28;20234;-64
2022/04/02 05:22:33;;;;;;;8.80;6.97;;;3.70;79.80;;;;;;5115165;28;20208;-63
2022/04/02 05:25:00;;;;;;;12.30;7.22;;;3.60;79.60;;;;;;5100656;28;20631;-63
2022/04/02 05:27:28;;;;;;;9.75;7.07;;;3.70;79.60;;;;;;5098992;28;20628;-63
2022/04/02 05:29:55;;;;;;;9.40;7.47;;;3.70;79.60;;;;;;5110517;28;20552;-63
2022/04/02 05:32:23;;;;;;;9.68;6.57;;;3.70;79.50;;;;;;5115277;28;20189;-64
2022/04/02 05:34:50;;;;;;;9.60;7.68;;;3.80;79.10;;;;;;5112234;28;20197;-63
2022/04/02 05:37:18;;;;;;;7.90;6.60;;;3.80;78.80;;;;;;5094688;28;20651;-64
2022/04/02 05:39:46;;;;;;;11.25;6.70;;;3.80;79.00;;;;;;5097090;28;20736;-64
2022/04/02 05:42:14;;;;;;;9.15;7.75;;;3.80;78.90;;;;;;5115321;28;20196;-63
2022/04/02 05:44:41;;;;;;;7.43;6.28;;;3.90;78.60;;;;;;5113190;28;20189;-64
2022/04/02 05:47:10;;;;;;;9.02;7.25;;;3.90;78.40;;;;;;5094546;28;20601;-64
2022/04/02 05:49:37;;;;;;;9.02;7.30;;;3.90;77.60;;;;;;5095059;28;20694;-64
2022/04/02 05:52:05;;;;;;;8.05;6.72;;;4.00;77.80;;;;;;5114907;28;20771;-64
2022/04/02 05:54:35;;;;;;;8.05;6.53;;;4.00;78.00;;;;;;5114465;28;20279;-64
2022/04/02 05:57:02;;;;;;;9.95;7.00;;;4.00;77.20;;;;;;5074208;28;20694;-64
2022/04/02 05:59:29;;;;;;;9.13;6.95;;;4.10;77.40;;;;;;5074246;28;20198;-67
2022/04/02 06:01:56;;;;;;;10.25;6.68;;;4.00;77.20;;;;;;5114921;28;20328;-63
2022/04/02 06:04:25;;;;;;;7.07;5.65;;;4.10;77.20;;;;;;5114676;28;20200;-63
2022/04/02 06:06:53;;;;;;;7.60;6.45;;;4.10;76.80;;;;;;5095164;28;20465;-64
2022/04/02 06:09:20;;;;;;;7.93;6.45;;;4.10;76.60;;;;;;5094380;28;20197;-63
2022/04/02 06:11:48;;;;;;;8.35;6.80;;;4.20;76.10;;;;;;5112563;28;20195;-65
2022/04/02 06:14:15;;;;;;;8.77;6.18;;;4.20;75.60;;;;;;5098154;28;20212;-64
2022/04/02 06:16:43;;;;;;;7.70;6.70;;;4.20;75.50;;;;;;5094043;28;20232;-64
2022/04/02 06:19:10;;;;;;;8.65;6.10;;;4.20;74.60;;;;;;5108633;28;20608;-63
2022/04/02 06:21:37;;;;;;;9.10;7.20;;;4.20;74.80;;;;;;5096725;28;20208;-63
2022/04/02 06:24:06;;;;;;;11.00;7.13;;;4.20;75.10;;;;;;5106739;28;20212;-63
2022/04/02 06:26:34;;;;;;;10.82;6.60;;;4.20;75.00;;;;;;5114459;28;20275;-63
2022/04/02 06:29:02;;;;;;;8.45;6.72;;;4.20;74.20;;;;;;5102246;28;20226;-65
2022/04/02 06:31:29;;;;;;;11.77;7.45;;;4.20;74.60;;;;;;5109451;28;20370;-63
2022/04/02 06:33:56;;;;;;;10.05;7.70;;;4.10;74.10;;;;;;5099152;28;20189;-63
2022/04/02 06:36:24;;;;;;;9.15;6.63;;;4.10;74.30;;;;;;5093813;28;20200;-64
2022/04/02 06:38:51;;;;;;;8.70;6.50;;;4.10;74.60;;;;;;5106696;28;20188;-64
2022/04/02 06:41:19;;;;;;;8.02;6.78;;;4.10;74.50;;;;;;5109390;28;20208;-64
2022/04/02 06:43:46;;;;;;;8.00;6.97;;;4.10;74.00;;;;;;5108903;28;20181;-66
2022/04/02 06:46:15;;;;;;;8.60;7.20;;;4.10;73.90;;;;;;5073208;28;20200;-64
2022/04/02 06:48:42;;;;;;;6.53;5.40;;;4.10;74.10;;;;;;5079475;28;20630;-64
2022/04/02 06:51:11;;;;;;;8.90;6.57;;;4.10;73.80;;;;;;5101908;28;20197;-64
2022/04/02 06:53:39;;;;;;;10.02;6.05;;;4.10;73.70;;;;;;5094762;28;20204;-63
2022/04/02 06:56:06;;;;;;;8.32;7.00;;;4.10;73.20;;;;;;5114015;28;20192;-64
2022/04/02 06:58:35;;;;;;;9.05;6.65;;;4.00;73.50;;;;;;5105951;28;20254;-64
2022/04/02 07:01:02;;;;;;;9.77;6.50;;;4.00;74.20;;;;;;5103097;28;20224;-63
2022/04/02 07:03:31;;;;;;;8.50;6.45;;;4.00;74.70;;;;;;5107454;28;20184;-64
2022/04/02 07:05:59;;;;;;;10.05;6.68;;;4.10;75.00;;;;;;5093169;28;20181;-63
2022/04/02 07:08:26;;;;;;;9.85;7.20;;;4.10;75.00;;;;;;5112951;28;20189;-64
2022/04/02 07:10:53;;;;;;;9.32;6.85;;;4.10;75.30;;;;;;5104553;28;20185;-64
2022/04/02 07:13:20;;;;;;;8.45;7.03;;;4.20;75.20;;;;;;5093199;28;20185;-63
2022/04/02 07:15:47;;;;;;;12.38;7.88;;;4.20;75.10;;;;;;5099599;28;20233;-63
2022/04/02 07:18:14;;;;;;;10.48;6.47;;;4.20;75.20;;;;;;5113149;28;20220;-64
2022/04/02 07:20:44;;;;;;;13.45;7.35;;;4.20;74.60;;;;;;5106384;28;20222;-64
2022/04/02 07:23:12;;;;;;;13.40;8.90;;;4.20;75.00;;;;;;5090273;28;20197;-64
2022/04/02 07:25:40;;;;;;;8.95;7.13;;;4.30;74.70;;;;;;5091087;28;20559;-63
2022/04/02 07:28:08;;;;;;;12.07;10.85;;;4.30;74.90;;;;;;5090971;28;20185;-63
2022/04/02 07:30:37;;;;;;;13.98;11.63;;;4.30;74.80;;;;;;5090839;28;20189;-63
2022/04/02 07:33:05;;;;;;;11.95;9.45;;;4.30;73.70;;;;;;5090886;28;20183;-63
2022/04/02 07:35:38;;;;;;;11.50;9.30;;;4.30;73.10;;;;;;5090369;28;20189;-65
2022/04/02 07:38:14;;;;;;;10.63;8.02;;;4.30;73.70;;;;;;5090844;28;20232;-63
2022/04/02 07:40:48;;;;;;;8.02;6.78;;;4.30;73.00;;;;;;5090464;28;20247;-65
2022/04/02 07:43:25;;;;;;;14.30;7.53;;;4.30;73.50;;;;;;5088147;28;20188;-64
2022/04/02 07:46:00;;;;;;;12.30;8.43;;;4.30;73.90;;;;;;5091002;28;20559;-64
2022/04/02 07:48:30;;;;;;;11.98;8.13;;;4.30;73.80;;;;;;5087929;28;20191;-63
2022/04/02 07:50:57;;;;;;;10.43;7.82;;;4.30;73.40;;;;;;5090879;28;20181;-63
2022/04/02 07:53:34;;;;;;;8.70;6.97;;;4.20;73.10;;;;;;5090328;28;20185;-64
2022/04/02 07:56:04;;;;;;;8.90;6.80;;;4.20;73.30;;;;;;5091184;28;20250;-63
2022/04/02 07:58:34;;;;;;;8.80;7.05;;;4.20;73.30;;;;;;5094639;28;20666;-64
2022/04/02 08:01:05;;;;;;;13.07;7.93;;;4.20;73.50;;;;;;5090810;28;20221;-63
2022/04/02 08:03:33;;;;;;;9.75;7.50;;;4.20;73.30;;;;;;5091018;28;20551;-63
2022/04/02 08:06:01;;;;;;;13.82;7.25;;;4.20;73.00;;;;;;5095214;28;20660;-63
2022/04/02 08:08:30;;;;;;;11.25;7.03;;;4.10;72.80;;;;;;5090470;28;20208;-64
2022/04/02 08:10:57;;;;;;;10.48;7.78;;;4.10;73.40;;;;;;5094152;28;20596;-63
2022/04/02 08:13:24;;;;;;;8.15;6.63;;;4.20;73.50;;;;;;5094519;28;20214;-63
2022/04/02 08:15:54;;;;;;;15.88;7.43;;;4.20;73.30;;;;;;5094589;28;20228;-64
2022/04/02 08:18:26;;;;;;;10.50;8.27;;;4.20;72.40;;;;;;5091447;28;20189;-63
2022/04/02 08:20:54;;;;;;;20.27;7.90;;;4.10;72.70;;;;;;5095258;28;20213;-63
2022/04/02 08:23:21;;;;;;;10.90;8.25;;;4.10;73.00;;;;;;5094257;28;20551;-65
2022/04/02 08:26:00;;;;;;;15.20;7.95;;;4.10;73.00;;;;;;5098625;28;20184;-64
2022/04/02 08:28:33;;;;;;;10.40;8.05;;;4.10;73.20;;;;;;5094787;28;20655;-67
2022/04/02 08:31:08;;;;;;;10.88;7.75;;;4.10;72.20;;;;;;5086658;28;20189;-64
2022/04/02 08:33:50;;;;;;;11.35;7.47;;;4.10;72.80;;;;;;5095956;28;20192;-64
2022/04/02 08:36:27;;;;;;;11.75;7.70;;;4.10;73.00;;;;;;5091223;28;20284;-68
2022/04/02 08:39:05;;;;;;;12.50;8.10;;;4.10;73.00;;;;;;5085195;28;20224;-64
2022/04/02 08:42:00;;;;;;;10.75;8.30;;;4.10;72.80;;;;;;5089542;28;20228;-63
2022/04/02 08:44:56;;;;;;;10.02;8.05;;;4.10;72.40;;;;;;5091024;28;20244;-63
2022/04/02 08:47:53;;;;;;;10.38;8.95;;;4.10;72.90;;;;;;5091257;28;20193;-63
2022/04/02 08:50:29;;;;;;;15.70;8.93;;;4.10;73.00;;;;;;5076055;28;20199;-65
2022/04/02 08:53:01;;;;;;;11.05;9.82;;;4.10;72.60;;;;;;5091660;28;20233;-64
2022/04/02 08:55:46;;;;;;;11.70;9.13;;;4.10;73.30;;;;;;5093286;28;20712;-63
2022/04/02 08:58:24;;;;;;;12.90;8.80;;;4.10;72.60;;;;;;5090688;28;20204;-64
2022/04/02 09:01:05;;;;;;;12.80;9.13;;;4.10;71.80;;;;;;5095019;28;20232;-64
2022/04/02 09:04:05;;;;;;;14.77;9.30;;;4.10;72.60;;;;;;5092924;28;20200;-63
2022/04/02 09:07:10;;;;;;;9.40;7.80;;;4.20;73.40;;;;;;5095345;28;20299;-65
2022/04/02 09:10:05;;;;;;;16.48;9.32;;;4.20;73.80;;;;;;5089387;28;20189;-63
2022/04/02 09:12:42;;;;;;;11.60;8.63;;;4.30;73.70;;;;;;5090696;28;20189;-64
2022/04/02 09:15:11;;;;;;;14.75;9.85;;;4.40;73.50;;;;;;5092633;28;20200;-65
2022/04/02 09:17:50;;;;;;;12.80;8.77;;;4.60;72.70;;;;;;5088358;28;20225;-64
2022/04/02 09:20:34;;;;;;;12.52;7.97;;;4.50;72.70;;;;;;5091768;28;20623;-64
2022/04/02 09:23:15;;;;;;;10.35;8.07;;;4.70;73.80;;;;;;5090335;28;20204;-63
2022/04/02 09:26:37;;;;;;;15.90;8.85;;;4.90;72.60;;;;;;5088166;28;20203;-67
2022/04/02 09:29:28;;;;;;;14.05;9.13;;;5.10;71.60;;;;;;5091407;28;20189;-63
2022/04/02 09:32:28;;;;;;;13.10;9.05;;;5.20;71.50;;;;;;5089993;28;20709;-64
2022/04/02 09:35:41;;;;;;;10.73;9.05;;;5.40;71.10;;;;;;5093978;28;20264;-69
2022/04/02 09:38:47;;;;;;;14.10;8.63;;;5.60;70.40;;;;;;5091024;28;20280;-64
2022/04/02 09:41:39;;;;;;;10.55;8.80;;;5.60;69.20;;;;;;5092695;28;20208;-65
2022/04/02 09:44:30;;;;;;;16.60;9.82;;;5.70;68.40;;;;;;5091015;28;20189;-64
2022/04/02 09:47:06;;;;;;;12.50;10.30;;;5.70;67.50;;;;;;5091823;28;20220;-64
2022/04/02 09:49:58;;;;;;;11.55;9.32;;;5.70;68.20;;;;;;5094943;28;20188;-64
2022/04/02 09:52:27;;;;;;;13.98;9.10;;;5.60;68.20;;;;;;5092417;28;20197;-64
2022/04/02 09:55:07;;;;;;;13.38;10.57;;;5.70;68.30;;;;;;5092781;28;20601;-65
2022/04/02 09:57:50;;;;;;;15.68;10.02;;;5.70;68.10;;;;;;5089419;28;20232;-63
2022/04/02 10:00:18;;;;;;;13.88;10.10;;;5.80;67.70;;;;;;5091142;28;20192;-65
2022/04/02 10:03:02;;;;;;;14.00;10.95;;;5.90;66.80;;;;;;5091696;28;20312;-64
2022/04/02 10:05:43;;;;;;;13.40;10.13;;;5.90;66.50;;;;;;5088130;28;20292;-64
2022/04/02 10:08:21;;;;;;;17.25;9.27;;;6.00;65.30;;;;;;5095756;28;20268;-65
2022/04/02 10:10:51;;;;;;;15.70;9.93;;;6.00;65.90;;;;;;5089321;28;20197;-65
2022/04/02 10:13:18;;;;;;;13.88;9.82;;;6.20;66.20;;;;;;5091422;28;20193;-64
2022/04/02 10:15:49;;;;;;;15.77;9.07;;;6.30;65.20;;;;;;5088095;28;20189;-64
2022/04/02 10:18:22;;;;;;;11.18;9.50;;;6.40;64.60;;;;;;5092208;28;20308;-65
2022/04/02 10:20:51;;;;;;;14.80;10.93;;;6.60;63.80;;;;;;5091550;28;20193;-64
2022/04/02 10:23:21;;;;;;;15.93;9.75;;;6.60;63.70;;;;;;5092607;28;20196;-64
2022/04/02 10:26:07;;;;;;;11.25;9.40;;;6.70;62.70;;;;;;5091769;28;20316;-64
2022/04/02 10:28:38;;;;;;;13.43;10.05;;;6.70;62.20;;;;;;5089966;28;20235;-64
2022/04/02 10:31:09;;;;;;;16.63;11.35;;;6.70;61.30;;;;;;5092040;28;20185;-63
2022/04/02 10:33:40;;;;;;;20.58;12.63;;;6.70;61.10;;;;;;5092051;28;20185;-64
2022/04/02 10:36:10;;;;;;;21.40;16.40;;;6.70;61.30;;;;;;5095440;28;20242;-63
2022/04/02 10:38:41;;;;;;;20.55;15.77;;;6.70;62.20;;;;;;5092199;28;20197;-63
2022/04/02 10:41:11;;;;;;;17.50;13.13;;;6.80;62.60;;;;;;5091870;28;20303;-64
2022/04/02 10:43:47;;;;;;;14.82;10.75;;;7.00;62.30;;;;;;5092584;28;20572;-63
2022/04/02 10:46:19;;;;;;;13.70;9.70;;;7.00;61.50;;;;;;5091554;28;20188;-65
2022/04/02 10:48:56;;;;;;;10.27;9.13;;;7.10;60.90;;;;;;5088671;28;20258;-68
2022/04/02 10:51:25;;;;;;;14.75;10.10;;;7.10;60.70;;;;;;5091920;28;20184;-64
2022/04/02 10:54:01;;;;;;;13.13;9.68;;;7.20;60.70;;;;;;5087860;28;20215;-66
2022/04/02 10:56:34;;;;;;;12.80;8.50;;;7.30;60.70;;;;;;5090219;28;20188;-64
2022/04/02 10:59:01;;;;;;;11.63;8.18;;;7.20;59.60;;;;;;5091905;28;20712;-64
2022/04/02 11:01:30;;;;;;;10.13;7.82;;;7.10;59.10;;;;;;5095007;28;20563;-63
2022/04/02 11:03:58;;;;;;;9.48;8.10;;;6.90;58.80;;;;;;5091943;28;20652;-67
2022/04/02 11:06:49;;;;;;;10.88;9.05;;;6.80;59.10;;;;;;5090590;28;20196;-65
2022/04/02 11:09:32;;;;;;;8.73;7.80;;;6.70;59.80;;;;;;5092142;28;20242;-65
2022/04/02 11:12:03;;;;;;;13.90;9.77;;;6.50;59.70;;;;;;5089009;28;20173;-64
2022/04/02 11:14:38;;;;;;;11.25;9.20;;;6.50;60.70;;;;;;5094204;28;20228;-63
2022/04/02 11:17:05;;;;;;;12.88;8.70;;;6.40;61.00;;;;;;5091484;28;20259;-63
2022/04/02 11:22:26;;;;;;;13.57;10.30;;;6.30;62.20;;;;;;5089082;28;20220;-64
2022/04/02 11:25:05;;;;;;;9.82;8.82;;;6.40;62.90;;;;;;5091258;28;20241;-64
2022/04/02 11:27:37;;;;;;;10.38;8.48;;;6.50;62.30;;;;;;5093282;28;20192;-63
2022/04/02 11:30:07;;;;;;;15.25;10.52;;;6.60;61.90;;;;;;5090918;28;20193;-64
2022/04/02 11:32:40;;;;;;;26.20;15.05;;;6.60;61.60;;;;;;5091265;28;20196;-63
2022/04/02 11:35:09;;;;;;;11.98;8.80;;;6.60;61.10;;;;;;5093457;28;20314;-63
2022/04/02 11:37:51;;;;;;;8.18;7.30;;;6.50;60.90;;;;;;5086920;28;20246;-63
2022/04/02 11:40:21;;;;;;;11.32;7.93;;;6.50;61.10;;;;;;5095028;28;20238;-64
2022/04/02 11:42:50;;;;;;;10.30;8.50;;;6.40;60.60;;;;;;5086891;28;20653;-63
2022/04/02 11:45:20;;;;;;;11.00;9.25;;;6.20;61.30;;;;;;5090587;28;20193;-63
2022/04/02 11:47:52;;;;;;;11.15;9.27;;;6.20;62.10;;;;;;5091210;28;20193;-63
2022/04/02 11:50:28;;;;;;;12.52;9.35;;;6.20;63.20;;;;;;5089230;28;20189;-64
2022/04/02 11:52:56;;;;;;;9.40;8.10;;;6.30;63.00;;;;;;5091157;28;20603;-63
2022/04/02 11:55:26;;;;;;;20.10;12.45;;;6.40;63.70;;;;;;5090555;28;20189;-64
2022/04/02 11:58:02;;;;;;;21.55;11.90;;;6.60;63.50;;;;;;5090931;28;20185;-64
2022/04/02 12:00:31;;;;;;;12.30;10.13;;;6.70;63.20;;;;;;5090394;28;20234;-64
2022/04/02 12:03:00;;;;;;;11.88;9.70;;;6.90;62.40;;;;;;5086626;28;20706;-63
2022/04/02 12:05:44;;;;;;;11.43;9.55;;;7.10;61.80;;;;;;5090167;28;20279;-64
2022/04/02 12:08:26;;;;;;;13.18;10.30;;;7.20;60.70;;;;;;5086845;28;20268;-64
2022/04/02 12:10:55;;;;;;;9.98;8.95;;;7.30;60.00;;;;;;5089972;28;20575;-65
2022/04/02 12:13:23;;;;;;;12.65;10.57;;;7.40;59.50;;;;;;5086730;28;20206;-64
2022/04/02 12:16:03;;;;;;;13.52;8.65;;;7.40;59.00;;;;;;5090881;28;20292;-63
2022/04/02 12:18:31;;;;;;;13.13;10.05;;;7.40;59.20;;;;;;5090463;28;20184;-64
2022/04/02 12:21:04;;;;;;;17.23;12.43;;;7.50;59.00;;;;;;5087788;28;20212;-64
2022/04/02 12:23:33;;;;;;;12.70;10.48;;;7.60;58.40;;;;;;5089789;28;20781;-64
2022/04/02 12:26:02;;;;;;;15.70;10.68;;;7.80;58.30;;;;;;5090687;28;20534;-63
2022/04/02 12:28:29;;;;;;;12.07;9.88;;;8.00;58.20;;;;;;5089928;28;20192;-64
2022/04/02 12:31:05;;;;;;;12.73;8.52;;;8.20;58.10;;;;;;5090335;28;20573;-63
2022/04/02 12:33:33;;;;;;;9.68;8.10;;;8.30;56.80;;;;;;5086718;28;20196;-64
2022/04/02 12:36:05;;;;;;;10.18;8.80;;;8.10;56.40;;;;;;5092970;28;20223;-63
2022/04/02 12:38:33;;;;;;;11.63;9.20;;;8.00;56.30;;;;;;5090381;28;20269;-65
2022/04/02 12:41:04;;;;;;;12.98;10.35;;;7.90;55.50;;;;;;5086555;28;20709;-64
2022/04/02 12:43:32;;;;;;;11.48;9.70;;;7.80;56.10;;;;;;5090184;28;20258;-63
2022/04/02 12:46:01;;;;;;;12.75;10.20;;;7.70;56.40;;;;;;5090189;28;20274;-66
2022/04/02 12:48:41;;;;;;;14.20;9.77;;;7.70;56.90;;;;;;5085739;28;20181;-64
2022/04/02 12:51:13;;;;;;;10.30;8.93;;;7.50;57.10;;;;;;5089992;28;20193;-63
2022/04/02 12:53:42;;;;;;;10.80;9.15;;;7.50;57.50;;;;;;5086132;28;20650;-64
2022/04/02 12:56:16;;;;;;;12.50;9.40;;;7.40;57.80;;;;;;5091915;28;20242;-63
2022/04/02 12:58:47;;;;;;;9.88;8.85;;;7.30;57.40;;;;;;5093207;28;20196;-65
2022/04/02 13:01:16;;;;;;;15.30;9.65;;;7.30;58.40;;;;;;5093612;28;20189;-64
2022/04/02 13:03:54;;;;;;;11.23;10.10;;;7.30;58.60;;;;;;5093802;28;20213;-64
2022/04/02 13:06:24;;;;;;;11.15;9.63;;;7.40;58.00;;;;;;5089333;28;20279;-64
2022/04/02 13:09:04;;;;;;;11.45;9.10;;;7.40;57.80;;;;;;5093771;28;20197;-64
2022/04/02 13:11:43;;;;;;;11.93;9.00;;;7.40;57.80;;;;;;5089249;28;20542;-64
2022/04/02 13:14:16;;;;;;;9.85;8.00;;;7.50;58.20;;;;;;5093557;28;20632;-64
2022/04/02 13:16:43;;;;;;;13.23;9.52;;;7.70;57.60;;;;;;5089033;28;20229;-65